Time;durP1;ratioP1;P1;durP2;ratioP2;P2;SDS_P1;SDS_P2;PMS_P1;PMS_P2;Temp;Humidity;BMP_temperature;BMP_pressure;BME280_temperature;BME280_humidity;BME280_pressure;Samples;Min_cycle;Max_cycle;Signal;HPM_P1;HPM_P2
2023/12/06 00:05:40;;;;;;;0.52;0.52;;;;;;;;;;6262187;22;20084;-91
2023/12/06 00:08:12;;;;;;;0.50;0.50;;;;;;;;;;6238475;22;20015;-91
2023/12/06 00:10:41;;;;;;;0.47;0.47;;;;;;;;;;6273653;22;20020;-90
2023/12/06 00:13:07;;;;;;;0.50;0.50;;;;;;;;;;6250262;22;20026;-91
2023/12/06 00:15:34;;;;;;;0.50;0.50;;;;;;;;;;6272749;22;20343;-91
2023/12/06 00:18:00;;;;;;;0.50;0.50;;;;;;;;;;6248974;22;20007;-90
2023/12/06 00:20:33;;;;;;;0.50;0.50;;;;;;;;;;6274443;22;20016;-90
2023/12/06 00:22:59;;;;;;;0.43;0.43;;;;;;;;;;6249198;22;20154;-92
2023/12/06 00:25:25;;;;;;;0.63;0.63;;;;;;;;;;6249030;22;20011;-91
2023/12/06 00:27:55;;;;;;;0.50;0.50;;;;;;;;;;6261797;22;20042;-92
2023/12/06 00:30:23;;;;;;;0.50;0.50;;;;;;;;;;6273282;22;20027;-92
2023/12/06 00:32:49;;;;;;;0.50;0.50;;;;;;;;;;6276086;22;19999;-91
2023/12/06 00:35:24;;;;;;;0.50;0.50;;;;;;;;;;6301208;22;20062;-91
2023/12/06 00:37:51;;;;;;;0.50;0.50;;;;;;;;;;6249228;22;20063;-91
2023/12/06 00:40:17;;;;;;;0.50;0.50;;;;;;;;;;6251468;22;20023;-92
2023/12/06 00:42:58;;;;;;;0.50;0.50;;;;;;;;;;6296285;22;20024;-92
2023/12/06 00:50:39;;;;;;;0.50;0.50;;;;;;;;;;6242760;22;20031;-91
2023/12/06 00:53:05;;;;;;;0.50;0.50;;;;;;;;;;6216940;23;20032;-92
2023/12/06 01:13:46;;;;;;;0.50;0.50;;;;;;;;;;6267370;22;20058;-91
2023/12/06 01:16:13;;;;;;;0.60;0.60;;;;;;;;;;6221252;23;20024;-91
2023/12/06 01:18:44;;;;;;;0.50;0.50;;;;;;;;;;6245366;23;20027;-90
2023/12/06 01:21:11;;;;;;;1.45;1.35;;;;;;;;;;6221000;22;20004;-91
2023/12/06 01:23:38;;;;;;;0.70;0.70;;;;;;;;;;6222611;23;20043;-92
2023/12/06 01:28:40;;;;;;;0.50;0.50;;;;;;;;;;6289645;22;20023;-92
2023/12/06 01:31:21;;;;;;;0.50;0.50;;;;;;;;;;6237905;22;20020;-90
2023/12/06 01:34:03;;;;;;;0.50;0.50;;;;;;;;;;6246888;23;20023;-90
2023/12/06 01:36:55;;;;;;;0.50;0.50;;;;;;;;;;6252902;22;20030;-89
2023/12/06 01:45:02;;;;;;;0.50;0.50;;;;;;;;;;6295776;22;20024;-91
2023/12/06 01:57:58;;;;;;;0.50;0.50;;;;;;;;;;6268311;22;20033;-90
2023/12/06 02:00:30;;;;;;;0.40;0.40;;;;;;;;;;6269658;22;20027;-91
2023/12/06 02:05:35;;;;;;;0.40;0.40;;;;;;;;;;6268765;22;20047;-90
2023/12/06 02:27:59;;;;;;;0.70;0.70;;;;;;;;;;6283857;22;20091;-91
2023/12/06 02:30:27;;;;;;;0.50;0.50;;;;;;;;;;6231679;22;20020;-91
2023/12/06 02:40:40;;;;;;;0.50;0.50;;;;;;;;;;6268357;22;20046;-91
2023/12/06 02:45:48;;;;;;;0.50;0.50;;;;;;;;;;6227484;22;20020;-90
2023/12/06 02:56:20;;;;;;;0.50;0.50;;;;;;;;;;6263387;22;20279;-85
2023/12/06 02:58:46;;;;;;;0.50;0.50;;;;;;;;;;6267482;23;20040;-87
2023/12/06 03:01:24;;;;;;;0.50;0.50;;;;;;;;;;6268439;23;20008;-87
2023/12/06 03:03:54;;;;;;;0.50;0.50;;;;;;;;;;6271949;22;20008;-86
2023/12/06 03:06:20;;;;;;;0.47;0.47;;;;;;;;;;6243510;23;20020;-87
2023/12/06 03:08:50;;;;;;;0.50;0.50;;;;;;;;;;6246947;23;20027;-87
2023/12/06 03:11:16;;;;;;;0.50;0.50;;;;;;;;;;6268594;22;20004;-87
2023/12/06 03:13:45;;;;;;;0.50;0.50;;;;;;;;;;6273964;22;20023;-87
2023/12/06 03:16:11;;;;;;;0.50;0.50;;;;;;;;;;6243436;23;20012;-88
2023/12/06 03:18:39;;;;;;;0.50;0.50;;;;;;;;;;6245918;23;20024;-87
2023/12/06 03:31:35;;;;;;;0.50;0.50;;;;;;;;;;6263729;22;20028;-87
2023/12/06 03:34:02;;;;;;;0.50;0.50;;;;;;;;;;6248163;23;20027;-87
2023/12/06 03:36:28;;;;;;;0.50;0.50;;;;;;;;;;6249084;23;20030;-86
2023/12/06 03:38:58;;;;;;;0.45;0.45;;;;;;;;;;6269401;23;20053;-87
2023/12/06 03:41:25;;;;;;;0.50;0.50;;;;;;;;;;6243275;23;20004;-86
2023/12/06 03:46:36;;;;;;;0.50;0.50;;;;;;;;;;6263282;22;20024;-87
2023/12/06 03:49:27;;;;;;;0.50;0.50;;;;;;;;;;6272217;22;20004;-86
2023/12/06 03:51:57;;;;;;;0.40;0.40;;;;;;;;;;6270284;22;20268;-86
2023/12/06 03:54:34;;;;;;;0.50;0.50;;;;;;;;;;6244881;22;20047;-86
2023/12/06 03:57:39;;;;;;;0.60;0.60;;;;;;;;;;6206760;22;20019;-86
2023/12/06 04:00:15;;;;;;;0.45;0.45;;;;;;;;;;6244609;23;20048;-87
2023/12/06 04:02:41;;;;;;;0.50;0.50;;;;;;;;;;6243358;23;20016;-87
2023/12/06 04:05:25;;;;;;;0.60;0.60;;;;;;;;;;6270522;23;19996;-87
2023/12/06 04:07:56;;;;;;;0.50;0.50;;;;;;;;;;6244171;23;20020;-87
2023/12/06 04:10:22;;;;;;;0.50;0.50;;;;;;;;;;6242358;23;20404;-87
2023/12/06 04:13:01;;;;;;;0.50;0.50;;;;;;;;;;6267866;22;20075;-86
2023/12/06 04:15:37;;;;;;;0.50;0.50;;;;;;;;;;6267305;23;20004;-86
2023/12/06 04:18:04;;;;;;;0.50;0.50;;;;;;;;;;6244840;23;20000;-86
2023/12/06 04:20:34;;;;;;;0.50;0.50;;;;;;;;;;6270037;22;20030;-89
2023/12/06 04:23:00;;;;;;;0.60;0.60;;;;;;;;;;6265991;22;20053;-87
2023/12/06 04:25:43;;;;;;;0.50;0.50;;;;;;;;;;6271717;22;20024;-86
2023/12/06 04:28:12;;;;;;;0.50;0.50;;;;;;;;;;6271655;22;20015;-85
2023/12/06 04:30:41;;;;;;;0.50;0.50;;;;;;;;;;6240782;23;20091;-88
2023/12/06 04:35:49;;;;;;;0.50;0.50;;;;;;;;;;6241305;22;20030;-86
2023/12/06 04:38:15;;;;;;;0.60;0.60;;;;;;;;;;6216146;23;20001;-86
2023/12/06 04:40:45;;;;;;;0.50;0.50;;;;;;;;;;6239785;23;20048;-85
2023/12/06 04:43:11;;;;;;;0.50;0.50;;;;;;;;;;6242974;23;20080;-87
2023/12/06 04:45:47;;;;;;;0.50;0.50;;;;;;;;;;6237903;23;20004;-88
2023/12/06 04:48:13;;;;;;;0.65;0.65;;;;;;;;;;6211968;23;20015;-88
2023/12/06 04:50:43;;;;;;;0.50;0.50;;;;;;;;;;6239590;23;19997;-87
2023/12/06 04:53:18;;;;;;;0.50;0.50;;;;;;;;;;6195667;23;20029;-87
2023/12/06 04:55:45;;;;;;;0.40;0.40;;;;;;;;;;6237546;23;20024;-87
2023/12/06 05:00:50;;;;;;;0.50;0.50;;;;;;;;;;6261609;22;20028;-88
2023/12/06 05:03:16;;;;;;;0.50;0.50;;;;;;;;;;6241187;23;20016;-87
2023/12/06 05:05:48;;;;;;;0.47;0.47;;;;;;;;;;6239962;23;20000;-87
2023/12/06 05:08:20;;;;;;;0.50;0.50;;;;;;;;;;6242651;23;20012;-87
2023/12/06 05:10:47;;;;;;;0.55;0.55;;;;;;;;;;6241917;23;20016;-86
2023/12/06 05:15:50;;;;;;;0.50;0.50;;;;;;;;;;6255585;22;20004;-86
2023/12/06 05:18:17;;;;;;;0.50;0.50;;;;;;;;;;6260868;23;20020;-90
2023/12/06 05:20:43;;;;;;;0.50;0.50;;;;;;;;;;6266109;22;20027;-88
2023/12/06 05:28:26;;;;;;;0.40;0.40;;;;;;;;;;6262961;22;20021;-91
2023/12/06 05:58:02;;;;;;;0.40;0.40;;;;;;;;;;6276569;22;20024;-91
2023/12/06 06:03:23;;;;;;;0.40;0.40;;;;;;;;;;6258313;22;20035;-92
2023/12/06 06:08:28;;;;;;;0.47;0.47;;;;;;;;;;6212818;22;20061;-91
2023/12/06 06:16:09;;;;;;;0.50;0.50;;;;;;;;;;6265147;22;20035;-92
2023/12/06 06:18:35;;;;;;;0.50;0.50;;;;;;;;;;6260582;22;20020;-91
2023/12/06 06:26:16;;;;;;;0.63;0.63;;;;;;;;;;6277410;22;20012;-93
2023/12/06 06:28:48;;;;;;;0.50;0.50;;;;;;;;;;6245716;23;20447;-93
2023/12/06 06:39:05;;;;;;;0.50;0.50;;;;;;;;;;6250952;22;20008;-92
2023/12/06 06:41:34;;;;;;;0.50;0.50;;;;;;;;;;6271913;22;20008;-94
2023/12/06 06:46:37;;;;;;;0.40;0.40;;;;;;;;;;6238117;22;20025;-93
2023/12/06 06:49:04;;;;;;;0.50;0.50;;;;;;;;;;6238951;23;20021;-93
2023/12/06 06:51:33;;;;;;;0.50;0.50;;;;;;;;;;6238507;23;20060;-93
2023/12/06 06:53:59;;;;;;;0.50;0.50;;;;;;;;;;6213197;23;20021;-91
2023/12/06 06:56:25;;;;;;;0.50;0.50;;;;;;;;;;6235406;23;20001;-91
2023/12/06 06:58:51;;;;;;;0.50;0.50;;;;;;;;;;6238448;23;20017;-93
2023/12/06 07:01:18;;;;;;;0.50;0.50;;;;;;;;;;6210548;23;20023;-92
2023/12/06 07:04:05;;;;;;;0.50;0.50;;;;;;;;;;6211630;23;20036;-91
2023/12/06 07:06:35;;;;;;;0.50;0.50;;;;;;;;;;6234766;23;20031;-91
2023/12/06 07:09:01;;;;;;;0.50;0.50;;;;;;;;;;6211234;23;20016;-90
2023/12/06 07:11:29;;;;;;;0.50;0.50;;;;;;;;;;6210920;23;20047;-92
2023/12/06 07:13:59;;;;;;;0.52;0.52;;;;;;;;;;6238152;22;20017;-89
2023/12/06 07:16:25;;;;;;;0.50;0.50;;;;;;;;;;6243723;23;20051;-90
2023/12/06 07:18:51;;;;;;;0.50;0.50;;;;;;;;;;6244102;23;20051;-90
2023/12/06 07:21:17;;;;;;;0.50;0.50;;;;;;;;;;6269567;22;20027;-90
2023/12/06 07:23:44;;;;;;;0.40;0.40;;;;;;;;;;6245641;23;20056;-90
2023/12/06 07:26:18;;;;;;;0.50;0.50;;;;;;;;;;6271169;23;20026;-91
2023/12/06 07:49:43;;;;;;;0.50;0.50;;;;;;;;;;6248907;22;20025;-88
2023/12/06 08:00:11;;;;;;;0.45;0.45;;;;;;;;;;6231964;22;20024;-93
2023/12/06 08:05:16;;;;;;;0.50;0.50;;;;;;;;;;6268512;22;20359;-91
2023/12/06 08:07:45;;;;;;;0.50;0.50;;;;;;;;;;6272389;22;20035;-91
2023/12/06 08:10:13;;;;;;;0.40;0.40;;;;;;;;;;6246389;23;20047;-91
2023/12/06 08:12:46;;;;;;;0.65;0.65;;;;;;;;;;6246359;23;20007;-93
2023/12/06 08:17:50;;;;;;;0.50;0.50;;;;;;;;;;6269329;22;20025;-93
2023/12/06 08:20:16;;;;;;;0.50;0.50;;;;;;;;;;6246394;23;20027;-94
2023/12/06 08:25:19;;;;;;;0.50;0.50;;;;;;;;;;6262184;22;20028;-90
2023/12/06 08:27:47;;;;;;;0.60;0.60;;;;;;;;;;6268177;22;20023;-93
2023/12/06 08:30:13;;;;;;;0.50;0.50;;;;;;;;;;6243313;23;20351;-91
2023/12/06 08:32:41;;;;;;;0.50;0.50;;;;;;;;;;6242965;23;20012;-91
2023/12/06 08:35:09;;;;;;;0.55;0.55;;;;;;;;;;6242727;23;20031;-91
2023/12/06 08:37:35;;;;;;;0.50;0.50;;;;;;;;;;6242181;23;20028;-91
2023/12/06 08:40:03;;;;;;;0.50;0.50;;;;;;;;;;6240826;23;20016;-88
2023/12/06 08:42:29;;;;;;;0.43;0.43;;;;;;;;;;6268226;23;20000;-89
2023/12/06 08:44:55;;;;;;;0.43;0.43;;;;;;;;;;6242100;23;20042;-88
2023/12/06 08:47:21;;;;;;;0.50;0.50;;;;;;;;;;6241671;23;20013;-86
2023/12/06 08:49:48;;;;;;;0.50;0.50;;;;;;;;;;6242192;23;20043;-89
2023/12/06 08:52:16;;;;;;;0.50;0.50;;;;;;;;;;6241499;23;20020;-90
2023/12/06 08:54:43;;;;;;;0.50;0.50;;;;;;;;;;6243678;23;20022;-89
2023/12/06 08:57:11;;;;;;;0.50;0.50;;;;;;;;;;6240897;23;20012;-89
2023/12/06 08:59:37;;;;;;;0.50;0.50;;;;;;;;;;6241278;23;20455;-87
2023/12/06 09:02:04;;;;;;;0.50;0.50;;;;;;;;;;6241395;23;20054;-89
2023/12/06 09:04:30;;;;;;;0.50;0.50;;;;;;;;;;6254896;22;20004;-90
2023/12/06 09:07:00;;;;;;;0.50;0.50;;;;;;;;;;6269140;22;20031;-89
2023/12/06 09:09:27;;;;;;;0.50;0.50;;;;;;;;;;6243440;23;20000;-91
2023/12/06 09:12:15;;;;;;;0.50;0.50;;;;;;;;;;6266885;23;20484;-84
2023/12/06 09:14:46;;;;;;;0.40;0.40;;;;;;;;;;6266653;23;20020;-91
2023/12/06 09:17:16;;;;;;;0.50;0.50;;;;;;;;;;6245588;22;20015;-90
2023/12/06 09:19:43;;;;;;;0.50;0.50;;;;;;;;;;6266188;22;20014;-89
2023/12/06 09:22:15;;;;;;;0.50;0.50;;;;;;;;;;6267209;22;20007;-89
2023/12/06 09:24:42;;;;;;;0.65;0.65;;;;;;;;;;6239249;23;20022;-86
2023/12/06 09:27:08;;;;;;;0.50;0.50;;;;;;;;;;6265897;23;20027;-88
2023/12/06 09:29:36;;;;;;;0.50;0.50;;;;;;;;;;6263501;23;20012;-87
2023/12/06 09:32:02;;;;;;;0.50;0.50;;;;;;;;;;6265833;23;20012;-89
2023/12/06 09:34:29;;;;;;;0.50;0.50;;;;;;;;;;6267438;22;20016;-90
2023/12/06 09:36:55;;;;;;;0.50;0.50;;;;;;;;;;6266944;23;20403;-90
2023/12/06 09:39:21;;;;;;;0.50;0.50;;;;;;;;;;6240360;23;20027;-89
2023/12/06 09:41:49;;;;;;;0.50;0.50;;;;;;;;;;6264121;23;19997;-90
2023/12/06 09:44:16;;;;;;;0.50;0.50;;;;;;;;;;6241365;23;20012;-88
2023/12/06 09:46:43;;;;;;;0.50;0.50;;;;;;;;;;6240789;23;20094;-93
2023/12/06 09:52:33;;;;;;;0.50;0.50;;;;;;;;;;6279378;23;20026;-93
2023/12/06 09:57:36;;;;;;;0.50;0.50;;;;;;;;;;6265287;22;20027;-91
2023/12/06 10:00:02;;;;;;;0.40;0.40;;;;;;;;;;6241801;23;20074;-90
2023/12/06 10:02:46;;;;;;;0.40;0.40;;;;;;;;;;6267573;23;20027;-90
2023/12/06 10:05:12;;;;;;;0.50;0.50;;;;;;;;;;6242535;23;20041;-92
2023/12/06 10:12:55;;;;;;;0.50;0.50;;;;;;;;;;6269891;22;20024;-90
2023/12/06 10:18:00;;;;;;;0.50;0.50;;;;;;;;;;6267432;22;20008;-89
2023/12/06 10:23:21;;;;;;;0.45;0.45;;;;;;;;;;6273857;22;20062;-90
2023/12/06 10:25:50;;;;;;;0.50;0.50;;;;;;;;;;6219758;23;20020;-89
2023/12/06 10:28:23;;;;;;;0.50;0.50;;;;;;;;;;6269270;23;20016;-89
2023/12/06 10:31:09;;;;;;;0.50;0.50;;;;;;;;;;6242373;23;20012;-89
2023/12/06 10:44:06;;;;;;;0.50;0.50;;;;;;;;;;6295335;22;20023;-90
2023/12/06 10:46:38;;;;;;;0.35;0.35;;;;;;;;;;6272858;22;20012;-90
2023/12/06 10:51:48;;;;;;;0.50;0.50;;;;;;;;;;6239583;22;20087;-90
2023/12/06 10:54:16;;;;;;;0.40;0.40;;;;;;;;;;6194861;23;20017;-88
2023/12/06 10:56:44;;;;;;;0.50;0.50;;;;;;;;;;6180836;23;20008;-89
2023/12/06 10:59:13;;;;;;;0.40;0.40;;;;;;;;;;6181113;23;20025;-89
2023/12/06 11:09:30;;;;;;;0.50;0.50;;;;;;;;;;6267440;22;20075;-90
2023/12/06 11:12:05;;;;;;;0.50;0.50;;;;;;;;;;6266399;23;20043;-89
2023/12/06 11:14:50;;;;;;;0.45;0.45;;;;;;;;;;6266303;22;20095;-88
2023/12/06 11:17:17;;;;;;;;;;;;;;;;;;6264905;23;20016;-89
2023/12/06 11:19:45;;;;;;;0.50;0.50;;;;;;;;;;6239732;23;19916;-89
2023/12/06 11:22:11;;;;;;;0.50;0.50;;;;;;;;;;6239085;23;20447;-88
2023/12/06 11:24:38;;;;;;;0.50;0.50;;;;;;;;;;6240028;23;20020;-89
2023/12/06 11:27:06;;;;;;;0.50;0.50;;;;;;;;;;6266766;23;20004;-89
2023/12/06 11:29:35;;;;;;;0.50;0.50;;;;;;;;;;6264722;22;20016;-89
2023/12/06 11:32:02;;;;;;;0.50;0.50;;;;;;;;;;6237977;23;20000;-89
2023/12/06 11:34:40;;;;;;;0.40;0.40;;;;;;;;;;6241206;23;20012;-89
2023/12/06 11:37:14;;;;;;;0.50;0.50;;;;;;;;;;6217841;23;20008;-90
2023/12/06 11:39:41;;;;;;;0.40;0.40;;;;;;;;;;6241021;23;20233;-89
2023/12/06 11:42:18;;;;;;;0.50;0.50;;;;;;;;;;6266446;23;20284;-88
2023/12/06 11:44:54;;;;;;;0.60;0.60;;;;;;;;;;6215699;23;19996;-89
2023/12/06 11:47:20;;;;;;;;;;;;;;;;;;6241432;23;20015;-90
2023/12/06 11:49:53;;;;;;;0.50;0.50;;;;;;;;;;6266654;23;19919;-89
2023/12/06 11:52:20;;;;;;;0.50;0.50;;;;;;;;;;6216442;23;20072;-90
2023/12/06 11:54:47;;;;;;;0.50;0.50;;;;;;;;;;6266970;22;20487;-89
2023/12/06 11:57:15;;;;;;;0.45;0.45;;;;;;;;;;6217293;23;20016;-90
2023/12/06 11:59:42;;;;;;;0.40;0.40;;;;;;;;;;6242681;23;20024;-89
2023/12/06 12:02:08;;;;;;;0.50;0.50;;;;;;;;;;6241409;23;20087;-89
2023/12/06 12:04:37;;;;;;;0.50;0.50;;;;;;;;;;6242995;23;20023;-90
2023/12/06 12:07:04;;;;;;;0.50;0.50;;;;;;;;;;6268113;23;20087;-90
2023/12/06 12:09:33;;;;;;;0.50;0.50;;;;;;;;;;6243543;23;20031;-92
2023/12/06 12:12:01;;;;;;;0.50;0.50;;;;;;;;;;6244340;23;20016;-96
2023/12/06 12:14:37;;;;;;;0.50;0.50;;;;;;;;;;6220556;23;20006;-93
2023/12/06 12:25:00;;;;;;;0.55;0.55;;;;;;;;;;6270600;22;20048;-91
2023/12/06 12:32:41;;;;;;;0.50;0.50;;;;;;;;;;6269094;22;20031;-90
2023/12/06 12:58:35;;;;;;;0.40;0.40;;;;;;;;;;6270345;22;20027;-88
2023/12/06 13:01:12;;;;;;;0.47;0.47;;;;;;;;;;6245375;22;20020;-87
2023/12/06 13:03:42;;;;;;;0.45;0.45;;;;;;;;;;6271560;22;20001;-87
2023/12/06 13:06:10;;;;;;;0.50;0.50;;;;;;;;;;6245814;23;20024;-87
2023/12/06 13:08:39;;;;;;;0.50;0.50;;;;;;;;;;6244642;23;20020;-88
2023/12/06 13:19:32;;;;;;;0.50;0.50;;;;;;;;;;6274517;22;20016;-88
2023/12/06 13:22:07;;;;;;;0.50;0.50;;;;;;;;;;6277592;22;20000;-87
2023/12/06 13:29:42;;;;;;;0.50;0.50;;;;;;;;;;6245679;22;20012;-87
2023/12/06 13:32:13;;;;;;;0.50;0.50;;;;;;;;;;6215631;23;20011;-92
2023/12/06 13:45:23;;;;;;;0.50;0.50;;;;;;;;;;6270503;22;20031;-88
2023/12/06 13:48:03;;;;;;;0.50;0.50;;;;;;;;;;6220682;23;20008;-89
2023/12/06 13:50:39;;;;;;;0.40;0.40;;;;;;;;;;6219574;23;20025;-89
2023/12/06 13:55:46;;;;;;;0.50;0.50;;;;;;;;;;6287403;22;20011;-89
2023/12/06 13:58:22;;;;;;;0.47;0.47;;;;;;;;;;6252802;22;20003;-89
2023/12/06 14:07:58;;;;;;;0.50;0.50;;;;;;;;;;6302676;22;20031;-88
2023/12/06 14:10:27;;;;;;;0.45;0.45;;;;;;;;;;6275329;22;20004;-87
2023/12/06 14:26:21;;;;;;;0.40;0.40;;;;;;;;;;6278095;22;20023;-91
2023/12/06 14:31:23;;;;;;;0.50;0.50;;;;;;;;;;6295954;22;20047;-88
2023/12/06 14:36:28;;;;;;;0.50;0.50;;;;;;;;;;6253359;22;20199;-89
2023/12/06 14:38:55;;;;;;;0.45;0.45;;;;;;;;;;6248085;23;20004;-89
2023/12/06 14:41:25;;;;;;;0.40;0.40;;;;;;;;;;6272849;22;20031;-90
2023/12/06 14:43:55;;;;;;;0.47;0.47;;;;;;;;;;6249164;23;20008;-88
2023/12/06 14:46:41;;;;;;;0.50;0.50;;;;;;;;;;6270560;22;20076;-91
2023/12/06 14:59:36;;;;;;;0.50;0.50;;;;;;;;;;6248097;22;20501;-86
2023/12/06 15:02:21;;;;;;;0.50;0.50;;;;;;;;;;6247845;22;20023;-87
2023/12/06 15:15:48;;;;;;;0.40;0.40;;;;;;;;;;6255257;23;20008;-85
2023/12/06 15:18:14;;;;;;;0.50;0.50;;;;;;;;;;6213191;23;20044;-84
2023/12/06 15:20:52;;;;;;;0.50;0.50;;;;;;;;;;6239830;23;20015;-90
2023/12/06 15:23:25;;;;;;;0.30;0.30;;;;;;;;;;6215714;23;20143;-87
2023/12/06 15:39:03;;;;;;;0.47;0.47;;;;;;;;;;6261510;22;20016;-89
2023/12/06 15:42:03;;;;;;;0.40;0.40;;;;;;;;;;6245548;23;20028;-90
2023/12/06 15:47:21;;;;;;;0.50;0.50;;;;;;;;;;6238880;22;20031;-86
2023/12/06 15:49:47;;;;;;;0.50;0.50;;;;;;;;;;6221791;22;20043;-87
2023/12/06 16:00:10;;;;;;;0.40;0.40;;;;;;;;;;6258001;22;20011;-87
2023/12/06 16:03:04;;;;;;;0.40;0.40;;;;;;;;;;6276090;22;20035;-87
2023/12/06 16:06:00;;;;;;;0.43;0.43;;;;;;;;;;6269181;22;20012;-87
2023/12/06 16:16:22;;;;;;;0.50;0.50;;;;;;;;;;6279031;22;20014;-90
2023/12/06 16:18:59;;;;;;;0.50;0.50;;;;;;;;;;6242128;23;20059;-88
2023/12/06 16:24:24;;;;;;;0.50;0.50;;;;;;;;;;6261982;22;20020;-89
2023/12/06 16:37:23;;;;;;;0.50;0.50;;;;;;;;;;6245482;22;20012;-81
2023/12/06 16:45:01;;;;;;;0.50;0.50;;;;;;;;;;6261036;22;20467;-84
2023/12/06 16:47:50;;;;;;;0.40;0.40;;;;;;;;;;6241139;23;20016;-83
2023/12/06 16:50:16;;;;;;;0.50;0.50;;;;;;;;;;6242050;23;20435;-82
2023/12/06 16:52:46;;;;;;;0.40;0.40;;;;;;;;;;6268748;22;19996;-87
2023/12/06 16:55:12;;;;;;;0.40;0.40;;;;;;;;;;6265911;23;20008;-84
2023/12/06 16:57:44;;;;;;;0.40;0.40;;;;;;;;;;6273363;23;20031;-84
2023/12/06 17:00:12;;;;;;;0.50;0.50;;;;;;;;;;6264670;23;20027;-84
2023/12/06 17:02:42;;;;;;;0.50;0.50;;;;;;;;;;6266180;23;20012;-83
2023/12/06 17:05:14;;;;;;;0.50;0.50;;;;;;;;;;6244381;23;20015;-84
2023/12/06 17:07:42;;;;;;;0.50;0.50;;;;;;;;;;6244452;23;20039;-86
2023/12/06 17:10:11;;;;;;;0.40;0.40;;;;;;;;;;6265143;23;20023;-84
2023/12/06 17:20:27;;;;;;;0.40;0.40;;;;;;;;;;6238275;22;20024;-87
2023/12/06 17:22:58;;;;;;;0.40;0.40;;;;;;;;;;6215554;23;20005;-90
2023/12/06 17:51:30;;;;;;;0.50;0.50;;;;;;;;;;6245982;22;20051;-91
2023/12/06 17:54:04;;;;;;;0.50;0.50;;;;;;;;;;6252021;22;20027;-89
2023/12/06 18:33:05;;;;;;;0.50;0.50;;;;;;;;;;6302946;22;20008;-88
2023/12/06 18:35:32;;;;;;;0.45;0.45;;;;;;;;;;6277112;22;20044;-89
2023/12/06 18:38:04;;;;;;;0.50;0.50;;;;;;;;;;6252416;22;20067;-88
2023/12/06 18:40:31;;;;;;;0.50;0.50;;;;;;;;;;6250318;22;20023;-87
2023/12/06 18:43:06;;;;;;;0.40;0.40;;;;;;;;;;6251520;22;20012;-89
2023/12/06 18:45:37;;;;;;;0.40;0.40;;;;;;;;;;6302494;22;20023;-89
2023/12/06 18:48:03;;;;;;;0.50;0.50;;;;;;;;;;6250941;22;20012;-88
2023/12/06 18:50:33;;;;;;;0.52;0.52;;;;;;;;;;6278473;22;20000;-88
2023/12/06 18:53:02;;;;;;;0.50;0.50;;;;;;;;;;6250325;22;20003;-89
2023/12/06 18:55:36;;;;;;;0.50;0.50;;;;;;;;;;6249721;22;20016;-89
2023/12/06 19:00:41;;;;;;;0.50;0.50;;;;;;;;;;6280839;22;20023;-89
2023/12/06 19:03:07;;;;;;;0.50;0.50;;;;;;;;;;6251867;22;19999;-90
2023/12/06 19:08:11;;;;;;;0.50;0.50;;;;;;;;;;6302472;22;20038;-88
2023/12/06 19:13:16;;;;;;;0.50;0.50;;;;;;;;;;6300083;22;20047;-89
2023/12/06 19:15:50;;;;;;;0.50;0.50;;;;;;;;;;6274227;22;20069;-88
2023/12/06 19:18:16;;;;;;;0.50;0.50;;;;;;;;;;6250580;22;20073;-89
2023/12/06 19:20:43;;;;;;;0.50;0.50;;;;;;;;;;6249271;22;20015;-89
2023/12/06 19:23:15;;;;;;;0.50;0.50;;;;;;;;;;6276267;22;20020;-88
2023/12/06 19:25:41;;;;;;;0.50;0.50;;;;;;;;;;6249701;22;20003;-88
2023/12/06 19:31:24;;;;;;;0.50;0.50;;;;;;;;;;6303466;22;20010;-90
2023/12/06 19:33:55;;;;;;;0.50;0.50;;;;;;;;;;6252978;22;20046;-88
2023/12/06 19:44:11;;;;;;;0.50;0.50;;;;;;;;;;6271186;22;20008;-90
2023/12/06 19:46:38;;;;;;;0.50;0.50;;;;;;;;;;6270544;23;20012;-89
2023/12/06 19:59:57;;;;;;;0.50;0.50;;;;;;;;;;6240254;22;20047;-88
2023/12/06 20:10:12;;;;;;;0.50;0.50;;;;;;;;;;6282246;22;20078;-89
2023/12/06 20:20:36;;;;;;;0.50;0.50;;;;;;;;;;6263525;22;20015;-87
2023/12/06 21:12:42;;;;;;;0.40;0.40;;;;;;;;;;6272604;22;20015;-88
2023/12/06 21:15:12;;;;;;;0.50;0.50;;;;;;;;;;6245807;22;20028;-89
2023/12/06 21:22:49;;;;;;;0.50;0.50;;;;;;;;;;6255156;22;20020;-86
2023/12/06 21:30:30;;;;;;;0.50;0.50;;;;;;;;;;6243365;22;20027;-89
2023/12/06 21:38:08;;;;;;;0.50;0.50;;;;;;;;;;6262962;22;20083;-89
2023/12/06 22:29:58;;;;;;;0.40;0.40;;;;;;;;;;6269523;22;20019;-86
2023/12/06 22:32:24;;;;;;;0.50;0.50;;;;;;;;;;6247838;22;20055;-85
2023/12/06 22:37:33;;;;;;;0.40;0.40;;;;;;;;;;6279238;22;19919;-89
2023/12/06 22:40:25;;;;;;;0.50;0.50;;;;;;;;;;6248505;22;20024;-87
2023/12/06 22:42:58;;;;;;;0.50;0.50;;;;;;;;;;6246171;23;20028;-85
2023/12/06 22:48:02;;;;;;;0.40;0.40;;;;;;;;;;6240004;22;20027;-88
2023/12/06 23:04:15;;;;;;;0.40;0.40;;;;;;;;;;6222600;22;20040;-84
2023/12/06 23:06:42;;;;;;;0.47;0.47;;;;;;;;;;6273153;22;20034;-87
2023/12/06 23:09:12;;;;;;;0.40;0.40;;;;;;;;;;6273007;22;20020;-86
2023/12/06 23:22:03;;;;;;;0.50;0.50;;;;;;;;;;6293889;22;20031;-87
2023/12/06 23:24:29;;;;;;;0.50;0.50;;;;;;;;;;6243178;22;20019;-85
2023/12/06 23:32:09;;;;;;;0.50;0.50;;;;;;;;;;6271234;22;20039;-87
2023/12/06 23:37:14;;;;;;;0.40;0.40;;;;;;;;;;6263782;22;20023;-87
2023/12/06 23:39:47;;;;;;;0.50;0.50;;;;;;;;;;6246097;23;20000;-85
2023/12/06 23:47:30;;;;;;;0.40;0.40;;;;;;;;;;6261847;22;20039;-87
2023/12/06 23:49:59;;;;;;;0.40;0.40;;;;;;;;;;6250625;22;20024;-87
2023/12/06 23:52:31;;;;;;;0.50;0.50;;;;;;;;;;6276705;22;20015;-87
2023/12/06 23:54:58;;;;;;;0.50;0.50;;;;;;;;;;6275932;22;20497;-86
